Terminal Aerodrome Forecast
Issued by NWS

Home | Current Version | Previous Version | Text Only | Print | Product List | Glossary On
Versions: 1 2 3 4 5 6 7 8 9 10 11 12 13 14 15 16 17 18 19 20 21 22 23
000
FTUS46 KOTX 301734
TAFSFF
TAF
KSFF 301734Z 3018/0118 23012KT P6SM SCT060
     FM302100 25011KT P6SM -SHRA BKN060
     FM010130 28005KT P6SM SCT070 SCT120
     FM010800 23004KT P6SM SKC=

USA.gov is the U.S. government's official web portal to all federal, state and local government web resources and services.